createdAt,value
2016-10-16T18:44:03.368Z,37.21
2016-10-16T18:45:03.384Z,37.4
2016-10-16T18:46:03.392Z,37.5
2016-10-16T18:47:03.403Z,37.02
2016-10-16T18:48:03.718Z,37.38
2016-10-16T18:49:03.725Z,37.4
2016-10-16T18:50:03.730Z,37.5
2016-10-16T18:51:03.740Z,37.7
2016-10-16T18:52:03.796Z,37.77
2016-10-16T18:53:03.753Z,37.79
2016-10-16T18:54:03.766Z,37.3
2016-10-16T18:55:03.453Z,37.6
2016-10-16T18:56:03.461Z,37.4
2016-10-16T18:57:03.788Z,37.5
2016-10-16T18:58:03.472Z,37.6
2016-10-16T18:59:03.793Z,37.02
2016-10-16T19:00:03.802Z,37.12
2016-10-16T19:01:03.810Z,37.38
2016-10-16T19:02:03.813Z,37.48
2016-10-16T19:03:03.821Z,37.4
2016-10-16T19:04:03.516Z,37.4
2016-10-16T19:05:03.523Z,37.3
2016-10-16T19:06:03.529Z,37.21
2016-10-16T19:07:03.901Z,37.3
2016-10-16T19:08:03.908Z,37.21
2016-10-16T19:09:03.861Z,37.4
2016-10-16T19:10:03.871Z,37.3
2016-10-16T19:11:03.930Z,37.5
2016-10-16T19:12:03.933Z,37.88
2016-10-16T19:13:03.890Z,37.5
2016-10-16T19:14:03.585Z,37.7
2016-10-16T19:15:03.905Z,37.58
2016-10-16T19:16:03.910Z,37.6
2016-10-16T19:17:03.605Z,37.79
2016-10-16T19:18:03.609Z,37.7
2016-10-16T19:19:03.617Z,37.7
2016-10-16T19:20:04.011Z,37.6
2016-10-16T19:21:03.629Z,37.79
2016-10-16T19:22:03.950Z,37.79
2016-10-16T19:23:03.957Z,37.7
2016-10-16T19:24:04.002Z,37.6
2016-10-16T19:25:03.710Z,37.79
2016-10-16T19:26:03.914Z,37.7
2016-10-16T19:27:03.984Z,37.6
2016-10-16T19:28:03.992Z,37.7
2016-10-16T19:29:03.687Z,37.5
2016-10-16T19:30:03.742Z,37.79
2016-10-16T19:31:04.008Z,37.6
2016-10-16T19:32:03.707Z,37.79
2016-10-16T19:33:04.025Z,38.08
2016-10-16T19:34:04.037Z,37.88
2016-10-16T19:35:04.090Z,37.7
2016-10-16T19:36:03.732Z,37.7
2016-10-16T19:37:04.053Z,37.7
2016-10-16T19:38:03.802Z,37.7
2016-10-16T19:39:04.114Z,37.79
2016-10-16T19:40:04.073Z,37.7
2016-10-16T19:41:03.767Z,37.7
2016-10-16T19:42:04.086Z,37.4
2016-10-16T19:43:03.780Z,37.5
2016-10-16T19:44:03.838Z,37.21
2016-10-16T19:45:04.092Z,37.4
2016-10-16T19:46:04.114Z,37.4
2016-10-16T19:47:03.807Z,36.92
2016-10-16T19:48:04.176Z,37.02
2016-10-16T19:49:03.819Z,37.4
2016-10-16T19:50:03.835Z,37.02
2016-10-16T19:51:03.884Z,37.48
2016-10-16T19:52:03.842Z,37.4
2016-10-16T19:53:04.160Z,37.5
2016-10-16T19:54:03.858Z,37.29
2016-10-16T19:55:04.230Z,37.21
2016-10-16T19:56:03.920Z,37.3
2016-10-16T19:57:04.187Z,37.3
2016-10-16T19:58:04.194Z,37.29
2016-10-16T19:59:04.201Z,37.21
2016-10-16T20:00:04.209Z,37.21
2016-10-16T20:01:04.215Z,37.3
2016-10-16T20:02:04.220Z,37.21
2016-10-16T20:03:04.230Z,37.21
2016-10-16T20:04:03.927Z,37.3
2016-10-16T20:05:04.592Z,37.21
2016-10-16T20:06:04.038Z,37.1
2016-10-16T20:07:03.943Z,37.12
2016-10-16T20:08:03.998Z,37.12
2016-10-16T20:09:04.270Z,37
2016-10-16T20:10:03.962Z,37.21
2016-10-16T20:11:03.967Z,36.92
2016-10-16T20:12:04.341Z,37.02
2016-10-16T20:13:04.297Z,36.92
2016-10-16T20:14:04.301Z,37.1
2016-10-16T20:15:04.054Z,37.12
2016-10-16T20:16:04.318Z,37.21
2016-10-16T20:17:04.340Z,37.21
2016-10-16T20:18:04.017Z,36.82
2016-10-16T20:19:04.021Z,36.61
2016-10-16T20:20:04.342Z,36.82
2016-10-16T20:21:04.037Z,36.82
2016-10-16T20:22:04.355Z,36.72
2016-10-16T20:23:04.364Z,36.72
2016-10-16T20:24:04.056Z,36.72
2016-10-16T20:25:04.376Z,36.72
2016-10-16T20:26:04.384Z,36.44
2016-10-16T20:27:04.391Z,36.63
2016-10-16T20:28:04.398Z,36.82
2016-10-16T20:29:04.401Z,36.71
2016-10-16T20:30:04.098Z,36.9
2016-10-16T20:31:04.157Z,36.72
2016-10-16T20:32:04.477Z,36.72
2016-10-16T20:33:04.533Z,36.92
2016-10-16T20:34:04.488Z,37.02
2016-10-16T20:35:04.445Z,36.92
2016-10-16T20:36:04.450Z,36.9
2016-10-16T20:37:04.859Z,36.82
2016-10-16T20:38:04.467Z,36.82
2016-10-16T20:39:04.160Z,36.8
2016-10-16T20:40:04.481Z,37.02
2016-10-16T20:41:04.483Z,36.82
2016-10-16T20:42:04.496Z,36.92
2016-10-16T20:43:04.187Z,36.9
2016-10-16T20:44:04.242Z,36.92
2016-10-16T20:45:04.513Z,36.72
2016-10-16T20:46:04.570Z,36.92
2016-10-16T20:47:04.527Z,36.92
2016-10-16T20:48:04.532Z,37.02
2016-10-16T20:49:04.227Z,36.72
2016-10-16T20:50:04.596Z,36.92
2016-10-16T20:51:04.238Z,36.9
2016-10-16T20:52:04.610Z,36.72
2016-10-16T20:53:04.567Z,37.12
2016-10-16T20:54:04.262Z,36.92
2016-10-16T20:55:04.630Z,36.72
2016-10-16T20:56:04.636Z,36.72
2016-10-16T20:57:04.282Z,36.92
2016-10-16T20:58:04.336Z,36.71
2016-10-16T20:59:04.605Z,36.72
2016-10-16T21:00:04.620Z,36.9
2016-10-16T21:01:04.619Z,36.72
2016-10-16T21:02:04.628Z,36.8
2016-10-16T21:03:04.633Z,36.72
2016-10-16T21:04:04.639Z,36.8
2016-10-16T21:05:04.648Z,36.9
2016-10-16T21:06:04.340Z,36.71
2016-10-16T21:07:04.760Z,36.42
2016-10-16T21:08:04.670Z,36.71
2016-10-16T21:09:04.411Z,36.8
2016-10-16T21:10:04.683Z,36.44
2016-10-16T21:11:04.738Z,36.71
2016-10-16T21:12:04.746Z,36.8
2016-10-16T21:13:04.706Z,36.72
2016-10-16T21:14:04.395Z,36.71
2016-10-16T21:15:04.460Z,36.8
2016-10-16T21:16:04.411Z,36.82
2016-10-16T21:17:04.729Z,36.9
2016-10-16T21:18:04.471Z,36.61
2016-10-16T21:19:04.740Z,36.52
2016-10-16T21:20:04.798Z,36.8
2016-10-16T21:21:04.443Z,36.71
2016-10-16T21:22:04.449Z,36.42
2016-10-16T21:23:04.769Z,36.72
2016-10-16T21:24:04.462Z,36.8
2016-10-16T21:25:04.468Z,36.71
2016-10-16T21:26:04.476Z,36.61
2016-10-16T21:27:04.535Z,36.9
2016-10-16T21:28:04.800Z,36.9
2016-10-16T21:29:04.810Z,36.52
2016-10-16T21:30:04.502Z,36.71
2016-10-16T21:31:04.869Z,36.52
2016-10-16T21:32:04.515Z,36.71
2016-10-16T21:33:04.521Z,36.82
2016-10-16T21:34:04.892Z,37
2016-10-16T21:35:04.536Z,37
2016-10-16T21:36:04.543Z,37.21
2016-10-16T21:37:04.865Z,36.8
2016-10-16T21:38:04.871Z,37
2016-10-16T21:39:04.613Z,37.1
2016-10-16T21:40:04.883Z,37.1
2016-10-16T21:41:04.940Z,36.71
2016-10-16T21:42:04.633Z,36.61
2016-10-16T21:43:04.908Z,37
2016-10-16T21:44:04.596Z,36.8
2016-10-16T21:45:04.603Z,36.9
2016-10-16T21:46:04.606Z,36.71
2016-10-16T21:47:04.613Z,36.8
2016-10-16T21:48:04.937Z,37.1
2016-10-16T21:49:04.631Z,36.8
2016-10-16T21:50:04.948Z,36.9
2016-10-16T21:51:04.956Z,37
2016-10-16T21:52:04.651Z,37
2016-10-16T21:53:04.972Z,36.8
2016-10-16T21:54:04.977Z,37
2016-10-16T21:55:04.685Z,37.1
2016-10-16T21:56:04.679Z,37.1
2016-10-16T21:57:05.054Z,37.1
2016-10-16T21:58:05.254Z,36.9
2016-10-16T21:59:04.697Z,37.1
2016-10-16T22:00:05.017Z,37.1
2016-10-16T22:01:05.024Z,37
2016-10-16T22:02:04.717Z,36.9
2016-10-16T22:03:05.086Z,37.19
2016-10-16T22:04:05.042Z,37.19
2016-10-16T22:05:05.104Z,37.1
2016-10-16T22:06:05.114Z,37.1
2016-10-16T22:07:05.113Z,37.1
2016-10-16T22:08:05.121Z,37.19
2016-10-16T22:09:04.764Z,37.19
2016-10-16T22:10:04.773Z,37.1
2016-10-16T22:11:05.092Z,37.19
2016-10-16T22:12:05.097Z,37.19
2016-10-16T22:13:05.153Z,37
2016-10-16T22:14:05.110Z,36.8
2016-10-16T22:15:04.802Z,37.1
2016-10-16T22:16:05.122Z,37.19
2016-10-16T22:17:05.129Z,37.19
2016-10-16T22:18:05.142Z,36.9
2016-10-16T22:19:05.141Z,37.19
2016-10-16T22:20:04.836Z,37.19
2016-10-16T22:21:05.157Z,37.1
2016-10-16T22:22:05.213Z,37
2016-10-16T22:23:04.860Z,36.8
2016-10-16T22:24:05.174Z,36.9
2016-10-16T22:25:05.235Z,37.19
2016-10-16T22:26:05.188Z,36.9
2016-10-16T22:27:05.199Z,37.19
2016-10-16T22:28:05.253Z,37.1
2016-10-16T22:29:04.946Z,36.8
2016-10-16T22:30:05.472Z,36.8
2016-10-16T22:31:04.908Z,36.9
2016-10-16T22:32:05.228Z,36.9
2016-10-16T22:33:05.237Z,37
2016-10-16T22:34:04.929Z,36.9
2016-10-16T22:35:05.248Z,37
2016-10-16T22:36:05.306Z,37.1
2016-10-16T22:37:05.262Z,37
2016-10-16T22:38:04.955Z,36.9
2016-10-16T22:39:04.964Z,36.9
2016-10-16T22:40:05.333Z,37
2016-10-16T22:41:05.026Z,37.1
2016-10-16T22:42:05.294Z,37
2016-10-16T22:43:05.553Z,37
2016-10-16T22:44:05.045Z,37
2016-10-16T22:45:05.315Z,37
2016-10-16T22:46:05.009Z,37.1
2016-10-16T22:47:05.017Z,37
2016-10-16T22:48:05.336Z,37.1
2016-10-16T22:49:05.341Z,36.9
2016-10-16T22:50:05.349Z,36.9
2016-10-16T22:51:05.043Z,37
2016-10-16T22:52:05.048Z,37
2016-10-16T22:53:05.056Z,37.19
2016-10-16T22:54:05.375Z,37.29
2016-10-16T22:55:05.383Z,37
2016-10-16T22:56:05.125Z,37
2016-10-16T22:57:05.082Z,37
2016-10-16T22:58:05.400Z,37
2016-10-16T22:59:05.095Z,37
2016-10-16T23:00:05.105Z,37.1
2016-10-16T23:01:05.472Z,37.19
2016-10-16T23:02:05.427Z,37
2016-10-16T23:03:05.435Z,37.29
2016-10-16T23:04:05.178Z,36.9
2016-10-16T23:05:05.448Z,36.9
2016-10-16T23:06:05.503Z,37.19
2016-10-16T23:07:05.461Z,37.19
2016-10-16T23:08:05.465Z,36.9
2016-10-16T23:09:05.211Z,37
2016-10-16T23:10:05.184Z,37.1
2016-10-16T23:11:05.485Z,37.29
2016-10-16T23:12:05.546Z,37.29
2016-10-16T23:13:05.238Z,37.19
2016-10-16T23:14:05.556Z,37
2016-10-16T23:15:05.563Z,37.1
2016-10-16T23:16:05.206Z,37.1
2016-10-16T23:17:05.211Z,37.29
2016-10-16T23:18:05.531Z,37.1
2016-10-16T23:19:05.542Z,37.1
2016-10-16T23:20:05.233Z,37.19
2016-10-16T23:21:05.549Z,37.1
2016-10-16T23:22:05.556Z,37.1
2016-10-16T23:23:05.250Z,37.1
2016-10-16T23:24:05.622Z,37.19
2016-10-16T23:25:05.625Z,37.19
2016-10-16T23:26:05.275Z,37.1
2016-10-16T23:27:05.589Z,37.19
2016-10-16T23:28:05.584Z,37.29
2016-10-16T23:29:05.853Z,37.29
2016-10-16T23:30:05.297Z,37.29
2016-10-16T23:31:05.617Z,37.1
2016-10-16T23:32:05.630Z,37.1
2016-10-16T23:33:05.317Z,37.1
2016-10-16T23:34:05.634Z,37.19
2016-10-16T23:35:05.331Z,37.29
2016-10-16T23:36:05.337Z,37.38
2016-10-16T23:37:05.653Z,37.29
2016-10-16T23:38:05.762Z,37.29
2016-10-16T23:39:05.361Z,37.19
2016-10-16T23:40:05.727Z,37.19
2016-10-16T23:41:05.366Z,37.19
2016-10-16T23:42:05.687Z,37.19
2016-10-16T23:43:05.693Z,37.19
2016-10-16T23:44:05.386Z,37.1
2016-10-16T23:45:05.707Z,37.29
2016-10-16T23:46:05.401Z,37.1
2016-10-16T23:47:05.716Z,37.19
2016-10-16T23:48:05.777Z,37.19
2016-10-16T23:49:05.732Z,37.1
2016-10-16T23:50:05.736Z,37.29
2016-10-16T23:51:05.748Z,37.19
2016-10-16T23:52:05.751Z,37.19
2016-10-16T23:53:05.755Z,37.1
2016-10-16T23:54:05.448Z,37.29
2016-10-16T23:55:05.824Z,37.29
2016-10-16T23:56:05.516Z,37.19
2016-10-16T23:57:05.783Z,37.29
2016-10-16T23:58:05.794Z,37.29
2016-10-16T23:59:05.801Z,37.19
